createdAt,value
2018-12-24T00:01:51.162Z,51.80
2018-12-24T00:04:22.331Z,50.30
2018-12-24T00:06:55.394Z,49.70
2018-12-24T00:09:28.272Z,49.50
2018-12-24T00:12:06.963Z,49.00
2018-12-24T00:14:37.032Z,49.40
2018-12-24T00:17:09.727Z,49.00
2018-12-24T00:19:43.702Z,49.20
2018-12-24T00:22:16.074Z,48.80
2018-12-24T00:24:46.906Z,49.90
2018-12-24T00:27:20.413Z,49.90
2018-12-24T00:29:53.564Z,50.40
2018-12-24T00:32:26.100Z,51.30
2018-12-24T00:34:56.928Z,51.00
2018-12-24T00:37:29.335Z,52.10
2018-12-24T00:40:00.162Z,52.40
2018-12-24T00:42:32.228Z,52.10
2018-12-24T00:45:07.734Z,52.20
2018-12-24T00:47:40.823Z,52.20
2018-12-24T00:50:13.406Z,52.10
2018-12-24T00:52:45.794Z,52.40
2018-12-24T00:55:19.124Z,50.90
2018-12-24T00:57:50.324Z,51.30
2018-12-24T01:00:23.426Z,49.10
2018-12-24T01:02:55.467Z,50.10
2018-12-24T01:05:27.818Z,49.40
2018-12-24T01:07:58.995Z,48.70
2018-12-24T01:10:33.129Z,48.80
2018-12-24T01:13:05.790Z,49.90
2018-12-24T01:15:38.994Z,49.10
2018-12-24T01:18:13.418Z,49.20
2018-12-24T01:20:44.225Z,49.00
2018-12-24T01:23:18.263Z,48.90
2018-12-24T01:25:50.834Z,48.70
2018-12-24T01:28:23.365Z,48.90
2018-12-24T01:30:56.374Z,48.10
2018-12-24T01:33:28.845Z,48.50
2018-12-24T01:36:01.981Z,48.00
2018-12-24T01:38:32.817Z,48.10
2018-12-24T01:41:04.747Z,47.40
2018-12-24T01:43:36.538Z,46.80
2018-12-24T01:46:07.366Z,48.00
2018-12-24T01:48:38.615Z,47.90
2018-12-24T01:51:10.851Z,47.70
2018-12-24T01:53:42.428Z,48.40
2018-12-24T01:56:13.237Z,49.30
2018-12-24T01:58:45.109Z,48.60
2018-12-24T02:01:15.923Z,48.70
2018-12-24T02:03:47.661Z,48.30
2018-12-24T02:06:20.386Z,49.60
2018-12-24T02:08:53.208Z,50.20
2018-12-24T02:11:24.964Z,50.40
2018-12-24T02:13:58.179Z,50.60
2018-12-24T02:16:32.972Z,51.10
2018-12-24T02:19:06.284Z,51.90
2018-12-24T02:21:38.398Z,51.80
2018-12-24T02:24:10.601Z,52.20
2018-12-24T02:26:41.853Z,52.10
2018-12-24T02:29:12.670Z,52.30
2018-12-24T02:31:44.791Z,51.70
2018-12-24T02:34:18.219Z,51.70
2018-12-24T02:36:51.738Z,52.30
2018-12-24T02:39:22.970Z,52.20
2018-12-24T02:41:56.720Z,52.30
2018-12-24T02:44:31.123Z,53.20
2018-12-24T02:47:03.061Z,53.50
2018-12-24T02:49:35.190Z,54.30
2018-12-24T02:52:06.583Z,54.70
2018-12-24T02:54:37.472Z,55.00
2018-12-24T02:57:08.371Z,54.80
2018-12-24T02:59:41.371Z,55.10
2018-12-24T03:02:13.707Z,55.00
2018-12-24T03:04:44.511Z,56.40
2018-12-24T03:07:15.625Z,55.50
2018-12-24T03:09:47.410Z,55.50
2018-12-24T03:12:18.833Z,55.90
2018-12-24T03:14:49.604Z,57.10
2018-12-24T03:17:21.117Z,58.30
2018-12-24T03:19:51.916Z,57.90
2018-12-24T03:22:22.725Z,58.20
2018-12-24T03:24:53.507Z,42.10
2018-12-24T03:27:24.663Z,38.10
2018-12-24T03:29:55.847Z,41.90
2018-12-24T03:32:28.232Z,45.50
2018-12-24T03:34:59.102Z,50.90
2018-12-24T03:37:30.274Z,52.90
2018-12-24T03:40:01.418Z,53.00
2018-12-24T03:42:33.784Z,54.80
2018-12-24T03:45:04.592Z,55.20
2018-12-24T03:47:35.985Z,55.80
2018-12-24T03:50:07.430Z,57.20
2018-12-24T03:52:39.425Z,57.00
2018-12-24T03:55:10.298Z,58.10
2018-12-24T03:57:42.377Z,55.60
2018-12-24T04:00:13.848Z,56.60
2018-12-24T04:02:45.676Z,57.80
2018-12-24T04:05:17.480Z,53.70
2018-12-24T04:07:49.742Z,54.10
2018-12-24T04:10:20.531Z,56.50
2018-12-24T04:12:52.062Z,55.50
2018-12-24T04:15:22.934Z,57.00
2018-12-24T04:17:54.007Z,56.40
2018-12-24T04:20:25.767Z,55.50
2018-12-24T04:22:56.855Z,54.30
2018-12-24T04:25:27.968Z,55.30
2018-12-24T04:27:59.410Z,55.20
2018-12-24T04:30:30.192Z,55.70
2018-12-24T04:33:02.211Z,55.50
2018-12-24T04:35:33.657Z,55.50
2018-12-24T04:38:04.484Z,56.40
2018-12-24T04:40:38.015Z,53.40
2018-12-24T04:43:09.775Z,50.60
2018-12-24T04:45:41.330Z,50.00
2018-12-24T04:48:14.856Z,51.60
2018-12-24T04:50:46.060Z,51.80
2018-12-24T04:53:17.880Z,49.70
2018-12-24T04:55:50.777Z,49.50
2018-12-24T04:58:21.605Z,51.30
2018-12-24T05:00:52.341Z,52.00
2018-12-24T05:03:24.645Z,49.50
2018-12-24T05:05:57.005Z,48.70
2018-12-24T05:08:28.061Z,49.60
2018-12-24T05:10:59.387Z,49.00
2018-12-24T05:13:30.557Z,52.50
2018-12-24T05:16:01.713Z,50.80
2018-12-24T05:18:34.067Z,50.00
2018-12-24T05:21:05.224Z,50.80
2018-12-24T05:23:36.668Z,49.60
2018-12-24T05:26:07.444Z,51.50
2018-12-24T05:28:38.128Z,51.50
2018-12-24T05:31:08.862Z,50.20
2018-12-24T05:33:41.781Z,51.60
2018-12-24T05:36:12.528Z,53.20
2018-12-24T05:38:43.305Z,51.60
2018-12-24T05:41:14.484Z,48.10
2018-12-24T05:43:49.388Z,49.40
2018-12-24T05:46:18.111Z,51.60
2018-12-24T05:48:48.919Z,49.40
2018-12-24T05:51:19.814Z,46.40
2018-12-24T05:53:50.667Z,49.10
2018-12-24T05:56:21.755Z,46.70
2018-12-24T05:58:53.850Z,47.60
2018-12-24T06:01:24.800Z,48.20
2018-12-24T06:03:56.570Z,49.10
2018-12-24T06:06:30.392Z,44.10
2018-12-24T06:09:01.173Z,45.10
2018-12-24T06:11:32.612Z,45.20
2018-12-24T06:14:03.386Z,46.40
2018-12-24T06:16:34.162Z,49.30
2018-12-24T06:19:06.251Z,49.30
2018-12-24T06:21:37.143Z,48.20
2018-12-24T06:24:07.908Z,50.40
2018-12-24T06:26:38.685Z,53.60
2018-12-24T06:29:09.794Z,49.60
2018-12-24T06:31:40.960Z,50.40
2018-12-24T06:34:12.106Z,50.30
2018-12-24T06:36:43.251Z,53.20
2018-12-24T06:39:14.696Z,51.10
2018-12-24T06:41:45.850Z,48.30
2018-12-24T06:44:18.011Z,48.70
2018-12-24T06:46:49.169Z,48.70
2018-12-24T06:49:19.953Z,49.70
2018-12-24T06:51:52.017Z,51.00
2018-12-24T06:54:24.042Z,50.70
2018-12-24T06:56:55.066Z,48.40
2018-12-24T06:59:25.847Z,50.90
2018-12-24T07:01:56.694Z,52.80
2018-12-24T07:04:28.186Z,51.10
2018-12-24T07:06:58.966Z,50.70
2018-12-24T07:09:30.747Z,47.70
2018-12-24T07:12:01.833Z,47.10
2018-12-24T07:14:32.597Z,46.80
2018-12-24T07:17:03.717Z,48.50
2018-12-24T07:19:35.789Z,48.10
2018-12-24T07:22:07.574Z,47.40
2018-12-24T07:24:38.338Z,45.10
2018-12-24T07:27:09.144Z,46.00
2018-12-24T07:29:40.553Z,44.60
2018-12-24T07:32:11.693Z,44.40
2018-12-24T07:34:43.927Z,45.60
2018-12-24T07:37:15.111Z,44.20
2018-12-24T07:39:47.400Z,45.50
2018-12-24T07:42:19.550Z,45.90
2018-12-24T07:44:50.893Z,44.50
2018-12-24T07:47:21.946Z,46.10
2018-12-24T07:49:53.019Z,44.80
2018-12-24T07:52:24.138Z,44.00
2018-12-24T07:54:56.181Z,43.40
2018-12-24T07:57:28.779Z,43.50
2018-12-24T08:00:13.534Z,42.90
2018-12-24T08:02:45.677Z,43.60
2018-12-24T08:05:18.608Z,43.10
2018-12-24T08:07:50.383Z,43.70
2018-12-24T08:10:22.024Z,43.40
2018-12-24T08:12:54.240Z,43.00
2018-12-24T08:15:25.419Z,44.00
2018-12-24T08:17:56.214Z,44.10
2018-12-24T08:20:29.653Z,43.80
2018-12-24T08:23:00.428Z,42.90
2018-12-24T08:25:32.286Z,41.80
2018-12-24T08:28:03.182Z,43.40
2018-12-24T08:30:34.018Z,43.90
2018-12-24T08:33:04.789Z,45.00
2018-12-24T08:35:35.839Z,43.50
2018-12-24T08:38:06.768Z,42.80
2018-12-24T08:40:38.806Z,42.20
2018-12-24T08:43:09.609Z,42.50
2018-12-24T08:45:41.491Z,42.70
2018-12-24T08:48:23.353Z,42.20
2018-12-24T08:50:54.169Z,38.20
2018-12-24T08:53:25.432Z,41.30
2018-12-24T08:55:56.235Z,39.50
2018-12-24T08:58:28.431Z,42.70
2018-12-24T09:00:59.213Z,41.00
2018-12-24T09:03:31.261Z,40.00
2018-12-24T09:06:02.456Z,40.40
2018-12-24T09:08:33.347Z,40.70
2018-12-24T09:11:04.162Z,40.80
2018-12-24T09:13:35.374Z,40.80
2018-12-24T09:16:06.180Z,39.20
2018-12-24T09:18:37.009Z,40.80
2018-12-24T09:21:09.907Z,41.60
2018-12-24T09:23:42.190Z,42.20
2018-12-24T09:26:13.010Z,42.30
2018-12-24T09:28:46.222Z,41.20
2018-12-24T09:31:17.692Z,42.70
2018-12-24T09:33:48.921Z,43.10
2018-12-24T09:36:19.974Z,41.50
2018-12-24T09:38:51.534Z,42.70
2018-12-24T09:41:23.534Z,42.10
2018-12-24T09:43:55.195Z,41.20
2018-12-24T09:46:25.969Z,40.70
2018-12-24T09:48:57.086Z,40.50
2018-12-24T09:51:27.940Z,40.90
2018-12-24T09:53:59.298Z,37.80
2018-12-24T09:56:30.153Z,38.30
2018-12-24T09:59:02.289Z,38.90
2018-12-24T10:01:34.060Z,39.90
2018-12-24T10:04:16.403Z,39.90
2018-12-24T10:06:47.526Z,39.80
2018-12-24T10:11:34.482Z,38.90
2018-12-24T10:14:06.738Z,38.70
2018-12-24T10:16:42.695Z,39.30
2018-12-24T10:19:18.133Z,40.20
2018-12-24T10:21:49.134Z,36.50
2018-12-24T10:24:25.043Z,37.50
2018-12-24T10:26:56.468Z,37.70
2018-12-24T10:29:27.625Z,37.20
2018-12-24T10:31:59.578Z,37.00
2018-12-24T10:34:30.664Z,36.10
2018-12-24T10:37:01.460Z,35.80
2018-12-24T10:39:32.921Z,35.00
2018-12-24T10:42:04.565Z,34.70
2018-12-24T10:44:36.822Z,34.80
2018-12-24T10:47:09.949Z,33.20
2018-12-24T10:49:41.201Z,33.60
2018-12-24T10:52:13.973Z,34.30
2018-12-24T10:54:45.535Z,32.90
2018-12-24T10:57:15.860Z,33.80
2018-12-24T10:59:46.195Z,33.50
2018-12-24T11:02:16.897Z,34.70
2018-12-24T11:04:47.377Z,34.50
2018-12-24T11:07:18.677Z,33.70
2018-12-24T11:09:50.899Z,33.70
2018-12-24T11:12:21.310Z,32.20
2018-12-24T11:14:52.440Z,33.70
2018-12-24T11:17:23.129Z,34.00
2018-12-24T11:19:53.800Z,34.20
2018-12-24T11:22:24.204Z,33.50
2018-12-24T11:24:55.244Z,33.00
2018-12-24T11:27:25.891Z,33.80
2018-12-24T11:29:56.610Z,33.50
2018-12-24T11:32:28.486Z,33.30
2018-12-24T11:34:58.828Z,32.90
2018-12-24T11:37:30.382Z,30.60
2018-12-24T11:40:01.517Z,32.50
2018-12-24T11:42:32.905Z,32.80
2018-12-24T11:45:03.095Z,31.50
2018-12-24T11:47:33.914Z,31.00
2018-12-24T11:50:04.700Z,31.20
2018-12-24T11:52:36.176Z,31.20
2018-12-24T11:55:09.552Z,30.80
2018-12-24T11:57:41.045Z,30.60
2018-12-24T12:00:11.393Z,31.20
2018-12-24T12:02:42.007Z,31.10
2018-12-24T12:05:12.336Z,31.60
2018-12-24T12:07:45.501Z,30.30
2018-12-24T12:10:17.184Z,30.90
2018-12-24T12:12:50.410Z,31.10
2018-12-24T12:15:22.714Z,29.40
2018-12-24T12:17:57.448Z,29.80
2018-12-24T12:20:28.418Z,30.00
2018-12-24T12:22:58.807Z,29.60
2018-12-24T12:25:33.543Z,30.10
2018-12-24T12:28:06.638Z,30.80
2018-12-24T12:30:37.443Z,30.20
2018-12-24T12:33:11.192Z,29.80
2018-12-24T12:35:44.961Z,30.40
2018-12-24T12:38:15.309Z,31.00
2018-12-24T12:40:46.525Z,29.90
2018-12-24T12:43:17.239Z,29.70
2018-12-24T12:45:51.358Z,29.00
2018-12-24T12:48:21.357Z,29.60
2018-12-24T12:50:54.426Z,29.50
2018-12-24T12:53:25.416Z,30.00
2018-12-24T12:55:56.115Z,30.30
2018-12-24T12:58:30.442Z,30.50
2018-12-24T13:01:01.723Z,29.80
2018-12-24T13:03:33.148Z,29.40
2018-12-24T13:06:04.583Z,27.60
2018-12-24T13:08:34.884Z,28.70
2018-12-24T13:11:06.270Z,30.80
2018-12-24T13:13:37.899Z,30.30
2018-12-24T13:16:09.581Z,32.10
2018-12-24T13:18:40.590Z,32.80
2018-12-24T13:21:13.413Z,30.80
2018-12-24T13:23:47.419Z,31.90
2018-12-24T13:26:18.038Z,31.90
2018-12-24T13:28:48.371Z,32.50
2018-12-24T13:31:20.850Z,32.60
2018-12-24T13:33:51.582Z,32.40
2018-12-24T13:36:22.309Z,34.00
2018-12-24T13:38:54.485Z,34.20
2018-12-24T13:41:24.793Z,34.90
2018-12-24T13:43:57.576Z,34.30
2018-12-24T13:46:29.376Z,35.10
2018-12-24T13:49:01.094Z,34.90
2018-12-24T13:51:31.742Z,33.80
2018-12-24T13:54:02.482Z,33.20
2018-12-24T13:56:33.208Z,32.60
2018-12-24T13:59:05.636Z,32.60
2018-12-24T14:01:37.093Z,31.40
2018-12-24T14:04:09.869Z,31.50
2018-12-24T14:06:43.830Z,31.00
2018-12-24T14:09:16.045Z,30.30
2018-12-24T14:11:46.744Z,30.90
2018-12-24T14:14:18.736Z,31.90
2018-12-24T14:16:52.829Z,31.70
2018-12-24T14:19:24.763Z,32.00
2018-12-24T14:21:56.980Z,30.50
2018-12-24T14:24:27.690Z,29.20
2018-12-24T14:26:58.043Z,30.30
2018-12-24T14:29:28.457Z,30.60
2018-12-24T14:31:59.167Z,30.10
2018-12-24T14:34:30.930Z,30.70
2018-12-24T14:37:01.966Z,30.10
2018-12-24T14:39:32.514Z,30.60
2018-12-24T14:42:04.398Z,31.60
2018-12-24T14:44:35.514Z,32.30
2018-12-24T14:47:06.302Z,33.10
2018-12-24T14:49:40.867Z,33.50
2018-12-24T14:52:11.543Z,33.70
2018-12-24T14:54:43.888Z,35.00
2018-12-24T14:57:15.444Z,35.30
2018-12-24T14:59:45.820Z,35.10
2018-12-24T15:02:17.032Z,35.20
2018-12-24T15:04:49.993Z,35.90
2018-12-24T15:07:20.918Z,36.20
2018-12-24T15:09:53.730Z,34.80
2018-12-24T15:12:27.057Z,35.40
2018-12-24T15:15:01.885Z,34.60
2018-12-24T15:17:33.228Z,35.70
2018-12-24T15:20:03.909Z,35.30
2018-12-24T15:22:34.652Z,34.30
2018-12-24T15:25:05.152Z,34.50
2018-12-24T15:27:36.328Z,34.00
2018-12-24T15:30:08.249Z,33.80
2018-12-24T15:32:38.920Z,33.50
2018-12-24T15:35:10.678Z,32.70
2018-12-24T15:37:41.181Z,33.20
2018-12-24T15:40:15.316Z,32.10
2018-12-24T15:42:46.642Z,33.80
2018-12-24T15:45:18.130Z,33.10
2018-12-24T15:47:50.152Z,32.60
2018-12-24T15:50:20.941Z,33.80
2018-12-24T15:52:51.864Z,33.60
2018-12-24T15:55:22.364Z,34.00
2018-12-24T15:57:55.021Z,33.90
2018-12-24T16:00:25.418Z,34.10
2018-12-24T16:02:57.168Z,34.20
2018-12-24T16:05:31.985Z,34.20
2018-12-24T16:08:03.964Z,34.40
2018-12-24T16:10:34.520Z,34.20
2018-12-24T16:13:07.102Z,34.10
2018-12-24T16:15:37.534Z,34.00
2018-12-24T16:18:09.694Z,34.00
2018-12-24T16:20:41.416Z,33.70
2018-12-24T16:23:13.746Z,34.70
2018-12-24T16:25:44.523Z,34.70
2018-12-24T16:28:17.419Z,34.70
2018-12-24T16:30:48.903Z,35.70
